createdAt,value
2019-04-07T00:00:10.752Z,19
2019-04-07T00:01:11.592Z,19
2019-04-07T00:02:10.756Z,19
2019-04-07T00:03:10.841Z,19
2019-04-07T00:04:11.093Z,19
2019-04-07T00:05:15.049Z,19
2019-04-07T00:06:11.116Z,19
2019-04-07T00:07:10.704Z,19
2019-04-07T00:08:11.331Z,19
2019-04-07T00:09:10.943Z,19
2019-04-07T00:10:11.243Z,19
2019-04-07T00:11:10.768Z,19
2019-04-07T00:12:11.262Z,19
2019-04-07T00:13:10.947Z,19
2019-04-07T00:14:11.267Z,19
2019-04-07T00:15:11.494Z,19
2019-04-07T00:16:11.020Z,19
2019-04-07T00:17:12.305Z,19
2019-04-07T00:18:10.855Z,19
2019-04-07T00:19:11.308Z,19
2019-04-07T00:20:10.903Z,19
2019-04-07T00:21:11.429Z,19
2019-04-07T00:22:11.428Z,19
2019-04-07T00:23:10.818Z,19
2019-04-07T00:24:10.941Z,19
2019-04-07T00:25:10.865Z,19
2019-04-07T00:26:11.518Z,19
2019-04-07T00:27:10.791Z,19
2019-04-07T00:28:10.946Z,19
2019-04-07T00:29:11.095Z,19
2019-04-07T00:30:10.957Z,19
2019-04-07T00:31:11.044Z,19
2019-04-07T00:32:11.304Z,19
2019-04-07T00:33:11.507Z,19
2019-04-07T00:34:11.010Z,19
2019-04-07T00:35:33.495Z,19
2019-04-07T00:36:10.713Z,19
2019-04-07T00:37:11.040Z,19
2019-04-07T00:38:10.779Z,19
2019-04-07T00:39:10.844Z,19
2019-04-07T00:40:10.864Z,19
2019-04-07T00:41:11.155Z,19
2019-04-07T00:42:12.047Z,19
2019-04-07T00:43:11.067Z,19
2019-04-07T00:44:11.590Z,19
2019-04-07T00:45:10.890Z,19
2019-04-07T00:46:11.710Z,19
2019-04-07T00:47:10.867Z,19
2019-04-07T00:48:10.854Z,19
2019-04-07T00:49:10.858Z,19
2019-04-07T00:50:10.920Z,19
2019-04-07T00:51:11.326Z,19
2019-04-07T00:52:10.955Z,19
2019-04-07T00:53:11.124Z,19
2019-04-07T00:54:10.717Z,19
2019-04-07T00:55:13.187Z,19
2019-04-07T00:56:10.773Z,19
2019-04-07T00:57:11.073Z,19
2019-04-07T00:58:10.778Z,19
2019-04-07T00:59:11.100Z,19
2019-04-07T01:00:10.827Z,19
2019-04-07T01:01:11.117Z,19
2019-04-07T01:02:10.896Z,19
2019-04-07T01:03:10.878Z,19
2019-04-07T01:04:11.319Z,19
2019-04-07T01:05:11.633Z,19
2019-04-07T01:06:11.625Z,19
2019-04-07T01:07:11.542Z,19
2019-04-07T01:08:10.970Z,19
2019-04-07T01:09:11.020Z,19
2019-04-07T01:10:11.155Z,19
2019-04-07T01:11:11.472Z,19
2019-04-07T01:12:10.963Z,19
2019-04-07T01:13:10.865Z,19
2019-04-07T01:14:11.082Z,19
2019-04-07T01:15:11.099Z,19
2019-04-07T01:16:10.990Z,19
2019-04-07T01:17:10.759Z,19
2019-04-07T01:18:10.744Z,19
2019-04-07T01:19:10.846Z,19
2019-04-07T01:20:11.688Z,19
2019-04-07T01:21:10.827Z,19
2019-04-07T01:22:11.247Z,19
2019-04-07T01:23:10.845Z,19
2019-04-07T01:24:10.852Z,19
2019-04-07T01:25:11.466Z,19
2019-04-07T01:26:11.375Z,19
2019-04-07T01:27:11.693Z,19
2019-04-07T01:28:11.182Z,19
2019-04-07T01:29:10.940Z,19
2019-04-07T01:30:10.716Z,19
2019-04-07T01:31:10.707Z,19
2019-04-07T01:32:11.416Z,19
2019-04-07T01:33:10.728Z,19
2019-04-07T01:34:10.779Z,19
2019-04-07T01:35:11.349Z,19
2019-04-07T01:36:11.443Z,19
2019-04-07T01:37:11.024Z,18.75
2019-04-07T01:38:11.420Z,19
2019-04-07T01:39:10.863Z,18.75
2019-04-07T01:40:10.856Z,19
2019-04-07T01:41:11.230Z,19
2019-04-07T01:42:11.469Z,18.75
2019-04-07T01:43:10.911Z,18.75
2019-04-07T01:44:11.411Z,18.75
2019-04-07T01:45:11.607Z,18.75
2019-04-07T01:46:11.207Z,18.75
2019-04-07T01:47:11.540Z,18.75
2019-04-07T01:48:11.631Z,18.75
2019-04-07T01:49:11.843Z,19
2019-04-07T01:50:11.134Z,18.75
2019-04-07T01:51:10.933Z,18.75
2019-04-07T01:52:11.047Z,18.75
2019-04-07T01:53:10.685Z,18.75
2019-04-07T01:54:10.733Z,18.75
2019-04-07T01:55:11.474Z,18.75
2019-04-07T01:56:10.955Z,18.75
2019-04-07T01:57:10.773Z,18.75
2019-04-07T01:58:10.891Z,18.75
2019-04-07T01:59:12.324Z,18.75
2019-04-07T02:00:11.325Z,18.75
2019-04-07T02:01:10.969Z,18.75
2019-04-07T02:02:11.026Z,18.75
2019-04-07T02:03:11.237Z,18.75
2019-04-07T02:04:10.812Z,18.75
2019-04-07T02:05:11.004Z,18.75
2019-04-07T02:06:10.673Z,18.75
2019-04-07T02:07:10.860Z,18.75
2019-04-07T02:08:11.124Z,18.75
2019-04-07T02:09:11.287Z,18.75
2019-04-07T02:10:11.084Z,18.75
2019-04-07T02:11:11.492Z,18.75
2019-04-07T02:12:11.665Z,18.75
2019-04-07T02:13:11.199Z,18.75
2019-04-07T02:14:11.416Z,18.75
2019-04-07T02:15:11.426Z,18.75
2019-04-07T02:16:11.540Z,18.75
2019-04-07T02:17:11.033Z,18.75
2019-04-07T02:18:11.525Z,18.75
2019-04-07T02:19:11.036Z,18.75
2019-04-07T02:20:11.452Z,18.75
2019-04-07T02:21:11.043Z,18.75
2019-04-07T02:22:11.264Z,18.75
2019-04-07T02:23:11.077Z,18.75
2019-04-07T02:24:11.581Z,18.75
2019-04-07T02:25:10.985Z,18.75
2019-04-07T02:26:11.597Z,18.75
2019-04-07T02:27:10.653Z,18.75
2019-04-07T02:28:11.219Z,18.75
2019-04-07T02:29:10.712Z,18.75
2019-04-07T02:30:10.672Z,18.75
2019-04-07T02:31:10.880Z,18.75
2019-04-07T02:32:10.876Z,18.75
2019-04-07T02:33:11.044Z,18.75
2019-04-07T02:34:12.078Z,18.75
2019-04-07T02:35:10.809Z,18.75
2019-04-07T02:36:31.129Z,18.75
2019-04-07T02:37:10.787Z,18.75
2019-04-07T02:38:19.322Z,18.75
2019-04-07T02:39:11.399Z,18.75
2019-04-07T02:40:12.190Z,18.75
2019-04-07T02:41:11.059Z,18.75
2019-04-07T02:42:11.292Z,18.75
2019-04-07T02:43:10.883Z,18.75
2019-04-07T02:44:11.029Z,18.75
2019-04-07T02:45:11.252Z,18.75
2019-04-07T02:46:11.238Z,18.75
2019-04-07T02:47:10.836Z,18.75
2019-04-07T02:48:10.918Z,18.75
2019-04-07T02:49:11.061Z,18.75
2019-04-07T02:50:10.825Z,18.75
2019-04-07T02:51:11.273Z,18.75
2019-04-07T02:52:11.382Z,18.75
2019-04-07T02:53:11.325Z,18.75
2019-04-07T02:54:10.852Z,18.75
2019-04-07T02:55:11.119Z,18.75
2019-04-07T02:56:10.919Z,18.75
2019-04-07T02:57:10.850Z,18.75
2019-04-07T02:58:10.895Z,18.75
2019-04-07T02:59:14.581Z,18.75
2019-04-07T03:00:12.192Z,18.75
2019-04-07T03:01:11.655Z,18.75
2019-04-07T03:02:11.014Z,18.75
2019-04-07T03:03:11.079Z,18.75
2019-04-07T03:04:12.055Z,18.75
2019-04-07T03:05:12.178Z,18.75
2019-04-07T03:06:10.643Z,18.75
2019-04-07T03:07:11.398Z,18.75
2019-04-07T03:08:12.201Z,18.75
2019-04-07T03:09:11.117Z,18.75
2019-04-07T03:10:11.004Z,18.75
2019-04-07T03:11:10.909Z,18.75
2019-04-07T03:12:10.784Z,18.75
2019-04-07T03:13:10.895Z,18.75
2019-04-07T03:14:12.568Z,18.75
2019-04-07T03:15:11.404Z,18.75
2019-04-07T03:16:11.020Z,18.75
2019-04-07T03:17:11.977Z,18.75
2019-04-07T03:18:10.846Z,18.75
2019-04-07T03:19:11.158Z,18.75
2019-04-07T03:20:10.879Z,18.75
2019-04-07T03:21:13.243Z,18.75
2019-04-07T03:22:11.371Z,18.75
2019-04-07T03:23:10.735Z,18.75
2019-04-07T03:24:12.692Z,18.75
2019-04-07T03:25:11.421Z,18.75
2019-04-07T03:26:16.430Z,18.75
2019-04-07T03:27:10.974Z,18.75
2019-04-07T03:28:12.845Z,18.75
2019-04-07T03:29:12.068Z,18.75
2019-04-07T03:30:14.637Z,18.75
2019-04-07T03:31:18.837Z,18.75
2019-04-07T03:32:24.479Z,18.75
2019-04-07T03:33:24.976Z,18.75
2019-04-07T03:34:16.009Z,18.75
2019-04-07T03:35:23.411Z,18.75
2019-04-07T03:36:25.830Z,18.75
2019-04-07T03:37:45.819Z,18.75
2019-04-07T03:38:12.308Z,18.75
2019-04-07T03:39:11.235Z,18.75
2019-04-07T03:40:12.735Z,18.75
2019-04-07T03:41:12.220Z,18.75
2019-04-07T03:42:10.939Z,18.75
2019-04-07T03:43:10.726Z,18.75
2019-04-07T03:44:11.956Z,18.75
2019-04-07T03:45:11.481Z,18.75
2019-04-07T03:46:10.732Z,18.75
2019-04-07T03:47:11.170Z,18.75
2019-04-07T03:48:10.970Z,18.75
2019-04-07T03:49:11.486Z,18.75
2019-04-07T03:50:12.362Z,18.75
2019-04-07T03:51:11.214Z,18.75
2019-04-07T03:52:12.027Z,18.75
2019-04-07T03:53:10.949Z,18.75
2019-04-07T03:54:10.915Z,18.75
2019-04-07T03:55:11.073Z,18.75
2019-04-07T03:56:10.971Z,18.75
2019-04-07T03:57:11.440Z,18.75
2019-04-07T03:58:10.691Z,18.75
2019-04-07T03:59:11.150Z,18.75
2019-04-07T04:00:10.817Z,18.75
2019-04-07T04:01:10.809Z,18.75
2019-04-07T04:02:12.370Z,18.75
2019-04-07T04:03:11.190Z,18.75
2019-04-07T04:04:10.858Z,18.75
2019-04-07T04:05:10.799Z,18.75
2019-04-07T04:06:14.019Z,18.75
2019-04-07T04:07:36.395Z,19
2019-04-07T04:08:11.509Z,19
2019-04-07T04:09:11.543Z,19
2019-04-07T04:10:10.957Z,19
2019-04-07T04:11:11.850Z,19
2019-04-07T04:12:11.882Z,19
2019-04-07T04:13:12.430Z,19
2019-04-07T04:14:11.245Z,19
2019-04-07T04:15:10.921Z,19
2019-04-07T04:16:10.858Z,19
2019-04-07T04:17:11.664Z,19
2019-04-07T04:18:12.107Z,19
2019-04-07T04:19:11.302Z,19
2019-04-07T04:20:10.792Z,19
2019-04-07T04:21:11.407Z,19
2019-04-07T04:22:13.912Z,19
2019-04-07T04:23:12.833Z,19
2019-04-07T04:24:10.737Z,19
2019-04-07T04:25:11.039Z,19
2019-04-07T04:26:10.876Z,19
2019-04-07T04:27:11.161Z,19
2019-04-07T04:28:10.790Z,19
2019-04-07T04:29:10.751Z,19
2019-04-07T04:30:13.575Z,19
2019-04-07T04:31:11.274Z,19
2019-04-07T04:32:11.565Z,19
2019-04-07T04:33:10.894Z,19
2019-04-07T04:34:12.110Z,19.25
2019-04-07T04:35:11.109Z,19.25
2019-04-07T04:36:10.755Z,19.25
2019-04-07T04:37:11.325Z,19.25
2019-04-07T04:38:10.879Z,19.25
2019-04-07T04:39:10.721Z,19.25
2019-04-07T04:40:10.903Z,19
2019-04-07T04:41:11.469Z,19
2019-04-07T04:42:11.667Z,19
2019-04-07T04:43:10.887Z,19
2019-04-07T04:44:10.803Z,18.75
2019-04-07T04:45:10.810Z,18.75
2019-04-07T04:46:14.984Z,18.75
2019-04-07T04:47:10.942Z,18.75
2019-04-07T04:48:12.136Z,18.5
2019-04-07T04:49:12.031Z,18.5
2019-04-07T04:50:11.055Z,18.5
2019-04-07T04:51:13.316Z,18.5
2019-04-07T04:52:11.742Z,18.5
2019-04-07T04:53:10.930Z,18.5
2019-04-07T04:54:11.237Z,18.25
2019-04-07T04:55:11.741Z,18.25
2019-04-07T04:56:11.101Z,18.25
2019-04-07T04:57:11.491Z,18.25
2019-04-07T04:58:11.491Z,18.25
2019-04-07T04:59:13.014Z,18.25
2019-04-07T05:00:10.893Z,18.25
2019-04-07T05:01:10.811Z,18.25
2019-04-07T05:02:10.988Z,18.25
2019-04-07T05:03:11.048Z,18.25
2019-04-07T05:04:11.603Z,18.25
2019-04-07T05:05:11.219Z,18.25
2019-04-07T05:06:12.027Z,18.25
2019-04-07T05:07:11.436Z,18.5
2019-04-07T05:08:11.636Z,18.5
2019-04-07T05:09:10.889Z,18.5
2019-04-07T05:10:11.035Z,18.5
2019-04-07T05:11:11.071Z,18.5
2019-04-07T05:12:10.636Z,18.5
2019-04-07T05:13:10.994Z,18.5
2019-04-07T05:14:11.543Z,18.75
2019-04-07T05:15:10.966Z,18.75
2019-04-07T05:16:12.006Z,18.75
2019-04-07T05:17:12.819Z,18.75
2019-04-07T05:18:10.987Z,18.75
2019-04-07T05:19:11.214Z,18.75
2019-04-07T05:20:11.118Z,18.75
2019-04-07T05:21:10.792Z,18.75
2019-04-07T05:22:11.423Z,18.75
2019-04-07T05:23:11.026Z,18.75
2019-04-07T05:24:11.664Z,18.75
2019-04-07T05:25:10.967Z,18.75
2019-04-07T05:26:11.150Z,18.75
2019-04-07T05:27:11.571Z,18.75
2019-04-07T05:28:11.472Z,18.75
2019-04-07T05:29:11.014Z,18.75
2019-04-07T05:30:11.384Z,18.75
2019-04-07T05:31:10.662Z,18.75
2019-04-07T05:32:11.205Z,18.75
2019-04-07T05:33:11.200Z,18.75
2019-04-07T05:34:10.881Z,18.75
2019-04-07T05:35:10.772Z,18.75
2019-04-07T05:36:10.801Z,19
2019-04-07T05:37:11.543Z,19
2019-04-07T05:38:11.452Z,19
2019-04-07T05:39:10.766Z,19
2019-04-07T05:40:11.466Z,19
2019-04-07T05:41:10.844Z,19
2019-04-07T05:42:10.970Z,19
2019-04-07T05:43:10.892Z,19
2019-04-07T05:44:11.494Z,19
2019-04-07T05:45:11.697Z,19
2019-04-07T05:46:11.111Z,19
2019-04-07T05:47:15.665Z,19
2019-04-07T05:48:11.013Z,19
2019-04-07T05:49:11.118Z,19
2019-04-07T05:50:11.321Z,19
2019-04-07T05:51:10.682Z,19
2019-04-07T05:52:10.710Z,19
2019-04-07T05:53:14.916Z,19
2019-04-07T05:54:12.577Z,19
2019-04-07T05:55:11.161Z,19
2019-04-07T05:56:11.275Z,19
2019-04-07T05:57:10.847Z,19
2019-04-07T05:58:10.752Z,19
2019-04-07T05:59:15.755Z,19
2019-04-07T06:00:17.108Z,19
2019-04-07T06:01:10.800Z,19
2019-04-07T06:02:11.475Z,19
2019-04-07T06:03:12.252Z,19
2019-04-07T06:04:19.576Z,19
2019-04-07T06:05:12.125Z,19
2019-04-07T06:06:11.651Z,19
2019-04-07T06:07:10.696Z,19
2019-04-07T06:08:39.123Z,19
2019-04-07T06:09:11.373Z,19
2019-04-07T06:10:10.695Z,19
2019-04-07T06:11:11.578Z,19
2019-04-07T06:12:10.879Z,19
2019-04-07T06:13:15.849Z,19
2019-04-07T06:14:17.303Z,19
2019-04-07T06:15:10.988Z,19
2019-04-07T06:16:10.783Z,19
2019-04-07T06:17:11.003Z,19
2019-04-07T06:18:10.785Z,19
2019-04-07T06:19:10.748Z,19
2019-04-07T06:20:19.011Z,19
2019-04-07T06:21:17.444Z,19
2019-04-07T06:22:11.244Z,19
2019-04-07T06:23:11.523Z,19
2019-04-07T06:24:11.464Z,19
2019-04-07T06:25:11.293Z,19
2019-04-07T06:26:13.253Z,19
2019-04-07T06:27:17.915Z,19
2019-04-07T06:28:10.805Z,19
2019-04-07T06:29:10.820Z,19
2019-04-07T06:30:11.900Z,19
2019-04-07T06:31:10.751Z,19
2019-04-07T06:32:11.606Z,19
2019-04-07T06:33:11.320Z,19
2019-04-07T06:34:12.275Z,19
2019-04-07T06:35:14.394Z,19
2019-04-07T06:36:11.664Z,19
2019-04-07T06:37:10.923Z,19
2019-04-07T06:38:10.823Z,19
2019-04-07T06:39:11.126Z,19
2019-04-07T06:40:11.285Z,19
2019-04-07T06:41:11.596Z,19
2019-04-07T06:42:11.059Z,19
2019-04-07T06:43:10.786Z,19
2019-04-07T06:44:23.250Z,19
2019-04-07T06:45:12.122Z,19
2019-04-07T06:46:10.781Z,19
2019-04-07T06:47:10.744Z,19
2019-04-07T06:48:11.640Z,19
2019-04-07T06:49:15.187Z,19
2019-04-07T06:50:17.038Z,19
2019-04-07T06:51:10.803Z,19
2019-04-07T06:52:10.726Z,19
2019-04-07T06:53:21.179Z,19
2019-04-07T06:54:11.475Z,19
2019-04-07T06:55:10.848Z,19
2019-04-07T06:56:11.179Z,19
2019-04-07T06:57:10.857Z,19
2019-04-07T06:58:11.296Z,19
2019-04-07T06:59:16.693Z,19
2019-04-07T07:00:11.209Z,19
2019-04-07T07:01:11.324Z,19
2019-04-07T07:02:10.757Z,19
2019-04-07T07:03:11.730Z,19
2019-04-07T07:04:14.110Z,19
2019-04-07T07:05:14.504Z,19
2019-04-07T07:06:11.266Z,19
2019-04-07T07:07:10.684Z,19
2019-04-07T07:08:12.801Z,19
2019-04-07T07:09:16.686Z,19
2019-04-07T07:10:11.752Z,19
2019-04-07T07:11:28.817Z,19
2019-04-07T07:12:38.670Z,19
2019-04-07T07:13:35.294Z,19
2019-04-07T07:14:43.556Z,19
2019-04-07T07:15:11.317Z,19
2019-04-07T07:16:17.841Z,19
2019-04-07T07:17:20.382Z,19
2019-04-07T07:18:11.549Z,19
2019-04-07T07:19:10.899Z,19
2019-04-07T07:20:11.567Z,19
2019-04-07T07:21:11.269Z,19
2019-04-07T07:22:18.568Z,19
2019-04-07T07:23:16.855Z,19
2019-04-07T07:24:20.720Z,19
2019-04-07T07:25:13.410Z,19
2019-04-07T07:26:11.703Z,19
2019-04-07T07:27:12.459Z,19
2019-04-07T07:28:13.751Z,19
2019-04-07T07:29:18.350Z,19
2019-04-07T07:30:10.807Z,19
2019-04-07T07:31:10.881Z,19
2019-04-07T07:32:12.730Z,19
2019-04-07T07:33:11.349Z,19
2019-04-07T07:34:11.967Z,19
2019-04-07T07:35:16.644Z,19
2019-04-07T07:36:10.883Z,19
2019-04-07T07:37:11.867Z,19
2019-04-07T07:38:10.650Z,19
2019-04-07T07:39:14.726Z,19
2019-04-07T07:40:18.638Z,19
2019-04-07T07:41:11.093Z,19
2019-04-07T07:42:12.310Z,19
2019-04-07T07:43:10.793Z,19
2019-04-07T07:44:10.769Z,19
2019-04-07T07:45:14.188Z,19
2019-04-07T07:46:10.704Z,19
2019-04-07T07:47:12.057Z,19
2019-04-07T07:48:11.043Z,19
2019-04-07T07:49:12.567Z,19
2019-04-07T07:50:12.266Z,19
2019-04-07T07:51:16.558Z,19
2019-04-07T07:52:12.707Z,19
2019-04-07T07:53:11.592Z,19
2019-04-07T07:54:16.233Z,19
2019-04-07T07:55:11.090Z,19
2019-04-07T07:56:14.459Z,19
2019-04-07T07:57:11.308Z,19
2019-04-07T07:58:10.642Z,19
2019-04-07T07:59:11.243Z,19
2019-04-07T08:00:11.446Z,19
2019-04-07T08:01:17.878Z,19
2019-04-07T08:02:19.482Z,19
2019-04-07T08:03:10.702Z,19
2019-04-07T08:04:10.791Z,19
2019-04-07T08:05:11.574Z,19
2019-04-07T08:06:11.862Z,19
2019-04-07T08:07:16.769Z,19
2019-04-07T08:08:11.710Z,19
2019-04-07T08:09:25.775Z,19
2019-04-07T08:10:11.082Z,19
2019-04-07T08:11:17.731Z,19
2019-04-07T08:12:11.728Z,19
2019-04-07T08:13:11.425Z,19
2019-04-07T08:14:18.561Z,19
2019-04-07T08:15:10.681Z,19
2019-04-07T08:16:11.334Z,19
2019-04-07T08:17:11.640Z,19
2019-04-07T08:18:12.212Z,19
2019-04-07T08:19:11.157Z,19
2019-04-07T08:20:13.196Z,19
2019-04-07T08:21:20.396Z,19
2019-04-07T08:22:11.803Z,19
2019-04-07T08:23:14.430Z,19
2019-04-07T08:24:19.242Z,19
2019-04-07T08:25:11.116Z,19
2019-04-07T08:26:13.533Z,19
2019-04-07T08:27:11.641Z,19
2019-04-07T08:28:10.796Z,19
2019-04-07T08:29:15.612Z,19
2019-04-07T08:30:14.093Z,19
2019-04-07T08:31:11.157Z,19
2019-04-07T08:32:11.252Z,19
2019-04-07T08:33:10.817Z,19
2019-04-07T08:34:11.077Z,19
2019-04-07T08:35:10.655Z,19
2019-04-07T08:36:15.090Z,19
2019-04-07T08:37:16.309Z,19
2019-04-07T08:38:13.040Z,19
2019-04-07T08:39:33.514Z,19
2019-04-07T08:40:12.013Z,19.25
2019-04-07T08:41:16.811Z,19.25
2019-04-07T08:42:20.633Z,19.25
2019-04-07T08:43:11.655Z,19.25
2019-04-07T08:44:11.649Z,19.25
2019-04-07T08:45:11.723Z,19.25
2019-04-07T08:46:11.160Z,19.25
2019-04-07T08:47:23.311Z,19.25
2019-04-07T08:48:11.081Z,19.25
2019-04-07T08:49:11.684Z,19.25
2019-04-07T08:50:10.773Z,19.25
2019-04-07T08:51:11.578Z,19.25
2019-04-07T08:52:13.020Z,19.25
2019-04-07T08:53:14.952Z,19.25
2019-04-07T08:54:18.543Z,19.25
2019-04-07T08:55:10.632Z,19.5
2019-04-07T08:56:12.007Z,19.5
2019-04-07T08:57:10.853Z,19.5
2019-04-07T08:58:29.825Z,19.5
2019-04-07T08:59:18.262Z,19.5
2019-04-07T09:00:18.433Z,19.5
2019-04-07T09:01:10.848Z,19.5
2019-04-07T09:02:11.583Z,19.5
2019-04-07T09:03:17.277Z,19.5
2019-04-07T09:04:14.641Z,19.5
2019-04-07T09:05:11.806Z,19.5
2019-04-07T09:06:11.106Z,19.5
2019-04-07T09:07:10.909Z,19.5
2019-04-07T09:08:10.727Z,19.5
2019-04-07T09:09:11.331Z,19.5
2019-04-07T09:10:10.582Z,19.75
2019-04-07T09:11:13.341Z,19.75
2019-04-07T09:12:11.568Z,19.75
2019-04-07T09:13:10.650Z,19.75
2019-04-07T09:14:10.629Z,19.75
2019-04-07T09:15:13.209Z,19.75
2019-04-07T09:16:18.602Z,19.75
2019-04-07T09:17:11.430Z,19.75
2019-04-07T09:18:19.079Z,19.75
2019-04-07T09:19:10.581Z,19.75
2019-04-07T09:20:11.050Z,19.75
2019-04-07T09:21:20.424Z,19.75
2019-04-07T09:22:12.728Z,19.75
2019-04-07T09:23:11.523Z,19.75
2019-04-07T09:24:12.658Z,19.75
2019-04-07T09:25:12.058Z,19.75
2019-04-07T09:26:12.451Z,19.75
2019-04-07T09:27:24.408Z,19.75
2019-04-07T09:28:11.950Z,19.75
2019-04-07T09:29:10.627Z,19.75
2019-04-07T09:30:11.372Z,19.75
2019-04-07T09:31:10.673Z,19.75
2019-04-07T09:32:10.974Z,19.75
2019-04-07T09:33:11.599Z,20
2019-04-07T09:34:11.708Z,20
2019-04-07T09:35:11.403Z,20
2019-04-07T09:36:11.311Z,20
2019-04-07T09:37:10.906Z,20
2019-04-07T09:38:11.167Z,20
2019-04-07T09:39:11.329Z,20
2019-04-07T09:40:10.585Z,20
2019-04-07T09:41:10.892Z,20
2019-04-07T09:42:10.745Z,20
2019-04-07T09:43:11.256Z,20
2019-04-07T09:44:12.567Z,20
2019-04-07T09:45:13.904Z,20
2019-04-07T09:46:12.074Z,20
2019-04-07T09:47:11.494Z,20
2019-04-07T09:48:10.697Z,20
2019-04-07T09:49:10.769Z,20
2019-04-07T09:50:11.516Z,20
2019-04-07T09:51:11.310Z,20
2019-04-07T09:52:17.890Z,20
2019-04-07T09:53:10.733Z,20
2019-04-07T09:54:11.230Z,20
2019-04-07T09:55:11.785Z,20
2019-04-07T09:56:13.154Z,20
2019-04-07T09:57:11.827Z,20
2019-04-07T09:58:12.161Z,20
2019-04-07T09:59:20.431Z,20
2019-04-07T10:00:11.694Z,20
2019-04-07T10:01:13.902Z,20
2019-04-07T10:02:13.203Z,20
2019-04-07T10:03:16.481Z,20
2019-04-07T10:04:12.315Z,20
2019-04-07T10:05:11.835Z,20
2019-04-07T10:06:10.803Z,20
2019-04-07T10:07:16.221Z,20
2019-04-07T10:08:19.098Z,20
2019-04-07T10:09:11.456Z,20
2019-04-07T10:10:16.011Z,20
2019-04-07T10:11:10.765Z,20.25
2019-04-07T10:12:10.562Z,20
2019-04-07T10:13:11.263Z,20.25
2019-04-07T10:14:10.723Z,20
2019-04-07T10:15:13.105Z,20
2019-04-07T10:16:12.137Z,20
2019-04-07T10:17:12.014Z,20.25
2019-04-07T10:18:10.769Z,20.25
2019-04-07T10:19:11.111Z,20.25
2019-04-07T10:20:12.526Z,20.25
2019-04-07T10:21:11.223Z,20.25
2019-04-07T10:22:10.825Z,20.25
2019-04-07T10:23:11.040Z,20.25
2019-04-07T10:24:10.583Z,20.25
2019-04-07T10:25:10.945Z,20.25
2019-04-07T10:26:10.603Z,20.25
2019-04-07T10:27:11.059Z,20.25
2019-04-07T10:28:13.929Z,20.25
2019-04-07T10:29:11.175Z,20.25
2019-04-07T10:30:11.200Z,20.25
2019-04-07T10:31:11.510Z,20.25
2019-04-07T10:32:11.506Z,20.25
2019-04-07T10:33:10.557Z,20.25
2019-04-07T10:34:13.667Z,20.25
2019-04-07T10:35:11.430Z,20.25
2019-04-07T10:36:11.440Z,20.25
2019-04-07T10:37:10.626Z,20.25
2019-04-07T10:38:11.140Z,20.25
2019-04-07T10:39:10.562Z,20.25
2019-04-07T10:40:23.393Z,20.25
2019-04-07T10:41:11.876Z,20.25
2019-04-07T10:42:11.485Z,20.25
2019-04-07T10:43:11.871Z,20.25
2019-04-07T10:44:10.644Z,20.25
2019-04-07T10:45:12.098Z,20.25
2019-04-07T10:46:11.403Z,20.25
2019-04-07T10:47:12.003Z,20.25
2019-04-07T10:48:11.824Z,20.25
2019-04-07T10:49:11.441Z,20.25
2019-04-07T10:50:11.539Z,20.25
2019-04-07T10:51:10.809Z,20.25
2019-04-07T10:52:11.548Z,20.25
2019-04-07T10:53:11.565Z,20.25
2019-04-07T10:54:10.600Z,20.25
2019-04-07T10:55:10.531Z,20.25
2019-04-07T10:56:10.633Z,20.25
2019-04-07T10:57:12.192Z,20.25
2019-04-07T10:58:11.655Z,20.25
2019-04-07T10:59:11.600Z,20.25
2019-04-07T11:00:11.209Z,20.25
2019-04-07T11:01:11.302Z,20.25
2019-04-07T11:02:12.112Z,20.25
2019-04-07T11:03:11.907Z,20.25
2019-04-07T11:04:10.787Z,20.25
2019-04-07T11:05:10.502Z,20.25
2019-04-07T11:06:11.748Z,20.25
2019-04-07T11:07:10.848Z,20.25
2019-04-07T11:08:11.777Z,20.25
2019-04-07T11:09:11.366Z,20.25
2019-04-07T11:10:11.529Z,20.25
2019-04-07T11:11:10.572Z,20.25
2019-04-07T11:12:11.078Z,20.25
2019-04-07T11:13:16.882Z,20.25
2019-04-07T11:14:11.520Z,20.25
2019-04-07T11:15:10.797Z,20.25
2019-04-07T11:16:11.114Z,20.25
2019-04-07T11:17:10.641Z,20.25
2019-04-07T11:18:10.672Z,20.25
2019-04-07T11:19:11.230Z,20.25
2019-04-07T11:20:11.711Z,20.25
2019-04-07T11:21:11.051Z,20.25
2019-04-07T11:22:10.691Z,20.25
2019-04-07T11:23:11.726Z,20.25
2019-04-07T11:24:10.746Z,20.25
2019-04-07T11:25:10.967Z,20.25
2019-04-07T11:26:11.394Z,20.25
2019-04-07T11:27:11.454Z,20.25
2019-04-07T11:28:11.301Z,20.25
2019-04-07T11:29:10.521Z,20.25
2019-04-07T11:30:11.618Z,20.25
2019-04-07T11:31:10.765Z,20.25
2019-04-07T11:32:10.659Z,20.25
2019-04-07T11:33:11.720Z,20.25
2019-04-07T11:34:11.233Z,20.25
2019-04-07T11:35:11.343Z,20.25
2019-04-07T11:36:10.762Z,20.25
2019-04-07T11:37:14.397Z,20.25
2019-04-07T11:38:10.488Z,20.25
2019-04-07T11:39:12.073Z,20.25
2019-04-07T11:40:10.838Z,20.25
2019-04-07T11:41:11.284Z,20.25
2019-04-07T11:42:10.761Z,20.25
2019-04-07T11:43:10.944Z,20.25
2019-04-07T11:44:10.738Z,20.25
2019-04-07T11:45:11.424Z,20.25
2019-04-07T11:46:11.724Z,20.25
2019-04-07T11:47:11.416Z,20.25
2019-04-07T11:48:10.561Z,20.25
2019-04-07T11:49:13.679Z,20.25
2019-04-07T11:50:10.685Z,20.25
2019-04-07T11:51:10.769Z,20.25
2019-04-07T11:52:11.536Z,20.25
2019-04-07T11:53:11.269Z,20.25
2019-04-07T11:54:10.671Z,20.25
2019-04-07T11:55:10.793Z,20.25
2019-04-07T11:56:11.815Z,20.25
2019-04-07T11:57:10.993Z,20.25
2019-04-07T11:58:33.173Z,20.25
2019-04-07T11:59:10.783Z,20.25
2019-04-07T12:00:10.816Z,20.25
2019-04-07T12:01:16.717Z,20.25
2019-04-07T12:02:10.942Z,20.25
2019-04-07T12:03:12.125Z,20.25
2019-04-07T12:04:17.327Z,20.25
2019-04-07T12:05:10.637Z,20.25
2019-04-07T12:06:18.160Z,20.25
2019-04-07T12:07:12.869Z,20.25
2019-04-07T12:08:11.648Z,20.25
2019-04-07T12:09:10.984Z,20.25
2019-04-07T12:10:11.336Z,20.25
2019-04-07T12:11:16.558Z,20.25
2019-04-07T12:12:11.625Z,20.25
2019-04-07T12:13:10.657Z,20.25
2019-04-07T12:14:10.823Z,20.25
2019-04-07T12:15:10.786Z,20.25
2019-04-07T12:16:10.726Z,20.5
2019-04-07T12:17:15.297Z,20.25
2019-04-07T12:18:20.413Z,20.5
2019-04-07T12:19:12.771Z,20.5
2019-04-07T12:20:11.058Z,20.25
2019-04-07T12:21:26.454Z,20.5
2019-04-07T12:22:14.537Z,20.5
2019-04-07T12:23:10.757Z,20.5
2019-04-07T12:24:10.785Z,20.5
2019-04-07T12:25:10.782Z,20.5
2019-04-07T12:26:10.615Z,20.5
2019-04-07T12:27:13.749Z,20.5
2019-04-07T12:28:20.082Z,20.5
2019-04-07T12:29:10.923Z,20.5
2019-04-07T12:30:10.640Z,20.5
2019-04-07T12:31:10.741Z,20.5
2019-04-07T12:32:11.905Z,20.5
2019-04-07T12:33:12.362Z,20.5
2019-04-07T12:34:15.624Z,20.5
2019-04-07T12:35:11.677Z,20.5
2019-04-07T12:36:10.559Z,20.5
2019-04-07T12:37:11.672Z,20.5
2019-04-07T12:38:13.708Z,20.5
2019-04-07T12:39:19.068Z,20.5
2019-04-07T12:40:11.105Z,20.5
2019-04-07T12:41:23.423Z,20.5
2019-04-07T12:42:12.431Z,20.5
2019-04-07T12:43:15.237Z,20.5
2019-04-07T12:44:11.619Z,20.5
2019-04-07T12:45:12.372Z,20.5
2019-04-07T12:46:11.751Z,20.5
2019-04-07T12:47:12.365Z,20.5
2019-04-07T12:48:11.735Z,20.5
2019-04-07T12:49:10.698Z,20.5
2019-04-07T12:50:21.785Z,20.5
2019-04-07T12:51:10.483Z,20.5
2019-04-07T12:52:10.502Z,20.5
2019-04-07T12:53:10.570Z,20.5
2019-04-07T12:54:11.901Z,20.5
2019-04-07T12:55:19.282Z,20.5
2019-04-07T12:56:11.540Z,20.5
2019-04-07T12:57:10.725Z,20.5
2019-04-07T12:58:13.082Z,20.5
2019-04-07T12:59:19.285Z,20.5
2019-04-07T13:00:12.583Z,20.5
2019-04-07T13:01:21.155Z,20.5
2019-04-07T13:02:17.811Z,20.75
2019-04-07T13:03:12.913Z,20.75
2019-04-07T13:04:12.269Z,20.75
2019-04-07T13:05:11.906Z,20.75
2019-04-07T13:06:10.949Z,20.75
2019-04-07T13:07:20.776Z,20.75
2019-04-07T13:08:11.099Z,20.75
2019-04-07T13:09:11.621Z,20.75
2019-04-07T13:10:10.598Z,20.75
2019-04-07T13:11:40.033Z,20.75
2019-04-07T13:12:10.586Z,20.75
2019-04-07T13:13:13.398Z,20.75
2019-04-07T13:14:10.488Z,20.75
2019-04-07T13:15:15.920Z,20.75
2019-04-07T13:16:10.670Z,20.75
2019-04-07T13:17:12.451Z,20.75
2019-04-07T13:18:13.691Z,20.75
2019-04-07T13:19:15.745Z,20.75
2019-04-07T13:20:13.243Z,20.75
2019-04-07T13:21:10.680Z,20.75
2019-04-07T13:22:13.483Z,20.75
2019-04-07T13:23:13.513Z,20.75
2019-04-07T13:24:33.986Z,20.75
2019-04-07T13:25:10.582Z,20.75
2019-04-07T13:26:10.598Z,20.75
2019-04-07T13:27:11.439Z,20.75
2019-04-07T13:28:11.150Z,20.75
2019-04-07T13:29:11.555Z,20.75